createdAt,value
2022-12-17T00:00:41.877Z,80.66
2022-12-17T00:03:29.791Z,80.64
2022-12-17T00:06:15.657Z,80.41
2022-12-17T00:09:01.493Z,80.62
2022-12-17T00:11:47.293Z,80.79
2022-12-17T00:14:36.327Z,80.67
2022-12-17T00:17:21.243Z,80.42
2022-12-17T00:20:07.024Z,80.44
2022-12-17T00:22:52.884Z,80.64
2022-12-17T00:25:39.296Z,80.78
2022-12-17T00:28:28.980Z,80.74
2022-12-17T00:31:16.067Z,80.44
2022-12-17T00:34:01.567Z,80.44
2022-12-17T00:36:47.113Z,79.95
2022-12-17T00:39:32.779Z,80.21
2022-12-17T00:42:18.493Z,80.49
2022-12-17T00:45:04.289Z,80.71
2022-12-17T00:47:51.227Z,80.52
2022-12-17T00:50:36.981Z,80.47
2022-12-17T00:53:22.636Z,80.55
2022-12-17T00:56:08.432Z,80.67
2022-12-17T00:58:55.147Z,80.81
2022-12-17T01:01:41.071Z,80.83
2022-12-17T01:04:28.320Z,81.10
2022-12-17T01:07:13.730Z,80.98
2022-12-17T01:09:59.082Z,81.08
2022-12-17T01:12:44.996Z,81.01
2022-12-17T01:15:30.779Z,80.99
2022-12-17T01:18:16.642Z,81.15
2022-12-17T01:21:03.586Z,81.14
2022-12-17T01:23:48.989Z,81.26
2022-12-17T01:26:34.755Z,81.20
2022-12-17T01:29:20.512Z,80.81
2022-12-17T01:32:06.414Z,80.52
2022-12-17T01:34:52.343Z,80.79
2022-12-17T01:37:39.080Z,80.78
2022-12-17T01:40:26.256Z,80.61
2022-12-17T01:43:11.862Z,80.64
2022-12-17T01:46:01.721Z,80.74
2022-12-17T01:48:49.505Z,80.76
2022-12-17T01:51:36.584Z,80.85
2022-12-17T01:54:24.550Z,81.05
2022-12-17T01:57:25.576Z,80.92
2022-12-17T02:00:17.550Z,81.36
2022-12-17T02:03:17.812Z,81.27
2022-12-17T02:06:16.991Z,80.82
2022-12-17T02:09:16.327Z,80.64
2022-12-17T02:12:14.604Z,80.58
2022-12-17T02:15:06.902Z,80.11
2022-12-17T02:18:02.677Z,80.04
2022-12-17T02:20:56.402Z,80.23
2022-12-17T02:24:01.208Z,80.60
2022-12-17T02:26:57.411Z,80.88
2022-12-17T02:29:47.735Z,81.04
2022-12-17T02:32:36.411Z,80.49
2022-12-17T02:35:31.614Z,80.61
2022-12-17T02:38:17.424Z,80.81
2022-12-17T02:41:07.072Z,80.55
2022-12-17T02:43:54.196Z,81.03
2022-12-17T02:46:39.812Z,81.15
2022-12-17T02:49:25.593Z,81.11
2022-12-17T02:52:13.911Z,80.90
2022-12-17T02:54:59.252Z,80.83
2022-12-17T02:57:48.439Z,80.96
2022-12-17T03:00:38.009Z,81.55
2022-12-17T03:03:23.854Z,81.77
2022-12-17T03:06:09.688Z,81.92
2022-12-17T03:08:55.335Z,81.98
2022-12-17T03:11:41.079Z,82.32
2022-12-17T03:14:38.309Z,82.39
2022-12-17T03:17:25.068Z,82.64
2022-12-17T03:20:10.873Z,82.87
2022-12-17T03:22:56.707Z,82.85
2022-12-17T03:25:42.326Z,83.20
2022-12-17T03:28:30.423Z,83.22
2022-12-17T03:31:17.108Z,83.24
2022-12-17T03:34:04.388Z,83.20
2022-12-17T03:36:49.912Z,83.06
2022-12-17T03:39:35.539Z,83.21
2022-12-17T03:42:32.775Z,83.41
2022-12-17T03:45:18.313Z,83.64
2022-12-17T03:48:03.942Z,83.82
2022-12-17T03:50:50.963Z,84.14
2022-12-17T03:53:36.970Z,84.32
2022-12-17T03:56:23.159Z,84.39
2022-12-17T03:59:09.019Z,84.79
2022-12-17T04:01:54.923Z,84.96
2022-12-17T04:04:40.528Z,85.25
2022-12-17T04:07:27.411Z,85.45
2022-12-17T04:10:12.935Z,85.59
2022-12-17T04:12:58.853Z,85.71
2022-12-17T04:15:44.757Z,85.84
2022-12-17T04:18:30.557Z,85.92
2022-12-17T04:21:16.496Z,86.15
2022-12-17T04:24:03.604Z,86.40
2022-12-17T04:26:49.420Z,86.66
2022-12-17T04:29:35.254Z,86.90
2022-12-17T04:32:20.874Z,87.11
2022-12-17T04:35:06.516Z,87.39
2022-12-17T04:37:52.236Z,87.49
2022-12-17T04:40:42.422Z,87.24
2022-12-17T04:43:31.062Z,87.26
2022-12-17T04:46:17.152Z,87.35
2022-12-17T04:49:02.651Z,87.49
2022-12-17T04:51:48.400Z,87.66
2022-12-17T04:54:34.028Z,87.60
2022-12-17T04:57:21.160Z,87.30
2022-12-17T05:00:07.080Z,87.44
2022-12-17T05:02:52.981Z,87.46
2022-12-17T05:05:38.638Z,87.48
2022-12-17T05:08:24.706Z,87.51
2022-12-17T05:11:10.477Z,87.42
2022-12-17T05:13:57.310Z,87.43
2022-12-17T05:16:43.281Z,87.33
2022-12-17T05:19:28.804Z,87.42
2022-12-17T05:22:14.384Z,87.47
2022-12-17T05:24:59.868Z,87.41
2022-12-17T05:27:45.538Z,87.36
2022-12-17T05:30:32.854Z,87.46
2022-12-17T05:33:19.332Z,86.85
2022-12-17T05:36:05.743Z,86.48
2022-12-17T05:38:51.563Z,86.17
2022-12-17T05:41:37.233Z,85.65
2022-12-17T05:44:23.058Z,85.13
2022-12-17T05:47:09.805Z,84.72
2022-12-17T05:49:56.354Z,84.57
2022-12-17T05:52:42.292Z,84.21
2022-12-17T05:55:27.754Z,84.24
2022-12-17T05:58:21.587Z,84.35
2022-12-17T06:01:07.344Z,84.36
2022-12-17T06:04:09.185Z,84.03
2022-12-17T06:06:54.568Z,83.46
2022-12-17T06:09:40.212Z,83.41
2022-12-17T06:12:26.184Z,83.20
2022-12-17T06:15:11.834Z,82.91
2022-12-17T06:17:57.702Z,82.72
2022-12-17T06:20:44.765Z,82.99
2022-12-17T06:23:30.312Z,82.95
2022-12-17T06:26:16.483Z,82.88
2022-12-17T06:29:02.601Z,82.95
2022-12-17T06:31:48.408Z,82.91
2022-12-17T06:34:34.072Z,83.11
2022-12-17T06:37:21.221Z,83.12
2022-12-17T06:40:06.787Z,82.72
2022-12-17T06:42:52.478Z,82.49
2022-12-17T06:45:38.316Z,82.12
2022-12-17T06:48:26.000Z,82.15
2022-12-17T06:51:12.712Z,82.32
2022-12-17T06:54:00.797Z,82.63
2022-12-17T06:56:46.467Z,82.85
2022-12-17T06:59:32.047Z,82.70
2022-12-17T07:02:18.069Z,82.61
2022-12-17T07:05:18.187Z,82.81
2022-12-17T07:08:03.524Z,82.41
2022-12-17T07:10:50.567Z,82.48
2022-12-17T07:13:38.765Z,82.47
2022-12-17T07:16:25.208Z,82.59
2022-12-17T07:19:10.789Z,82.21
2022-12-17T07:21:56.255Z,81.80
2022-12-17T07:24:42.063Z,81.59
2022-12-17T07:27:28.918Z,81.78
2022-12-17T07:30:15.403Z,82.08
2022-12-17T07:33:01.219Z,82.34
2022-12-17T07:35:47.007Z,82.45
2022-12-17T07:38:32.817Z,82.09
2022-12-17T07:41:18.633Z,82.05
2022-12-17T07:44:05.365Z,82.33
2022-12-17T07:46:51.154Z,82.48
2022-12-17T07:49:36.828Z,82.26
2022-12-17T07:52:22.285Z,82.10
2022-12-17T07:55:07.806Z,82.14
2022-12-17T07:57:53.275Z,82.33
2022-12-17T08:00:44.673Z,82.12
2022-12-17T08:03:33.001Z,82.05
2022-12-17T08:06:18.816Z,82.12
2022-12-17T08:09:04.551Z,82.13
2022-12-17T08:11:50.232Z,82.30
2022-12-17T08:14:36.041Z,82.15
2022-12-17T08:17:22.882Z,82.60
2022-12-17T08:20:08.654Z,82.65
2022-12-17T08:22:54.536Z,82.51
2022-12-17T08:25:40.182Z,82.11
2022-12-17T08:28:49.513Z,81.81
2022-12-17T08:31:34.034Z,81.78
2022-12-17T08:34:21.179Z,81.85
2022-12-17T08:37:06.743Z,81.99
2022-12-17T08:39:52.217Z,81.46
2022-12-17T08:42:37.919Z,81.68
2022-12-17T08:45:25.068Z,81.96
2022-12-17T08:48:10.859Z,82.19
2022-12-17T08:50:57.708Z,82.28
2022-12-17T08:53:43.638Z,82.43
2022-12-17T08:56:29.504Z,82.30
2022-12-17T08:59:15.570Z,82.12
2022-12-17T09:02:01.559Z,81.29
2022-12-17T09:04:46.940Z,81.13
2022-12-17T09:07:33.783Z,80.70
2022-12-17T09:10:19.327Z,80.76
2022-12-17T09:13:05.380Z,80.83
2022-12-17T09:15:50.848Z,80.78
2022-12-17T09:18:38.128Z,80.49
2022-12-17T09:21:24.225Z,79.32
2022-12-17T09:24:11.050Z,79.38
2022-12-17T09:26:56.776Z,79.08
2022-12-17T09:29:42.585Z,79.33
2022-12-17T09:32:28.467Z,79.73
2022-12-17T09:35:14.235Z,80.21
2022-12-17T09:38:00.101Z,80.03
2022-12-17T09:40:55.801Z,80.08
2022-12-17T09:43:53.486Z,79.63
2022-12-17T09:46:47.706Z,79.45
2022-12-17T09:49:45.080Z,79.63
2022-12-17T09:52:41.446Z,79.62
2022-12-17T09:55:39.956Z,79.42
2022-12-17T09:58:38.934Z,79.26
2022-12-17T10:01:29.278Z,79.21
2022-12-17T10:04:15.224Z,78.82
2022-12-17T10:07:00.791Z,78.60
2022-12-17T10:09:49.893Z,78.16
2022-12-17T10:12:39.708Z,77.98
2022-12-17T10:15:32.699Z,77.79
2022-12-17T10:18:25.774Z,78.08
2022-12-17T10:21:17.448Z,77.87
2022-12-17T10:24:03.203Z,76.87
2022-12-17T10:26:51.958Z,76.61
2022-12-17T10:29:47.325Z,76.81
2022-12-17T10:32:42.952Z,76.19
2022-12-17T10:35:37.170Z,76.76
2022-12-17T10:38:30.955Z,76.19
2022-12-17T10:41:16.651Z,76.95
2022-12-17T10:44:02.374Z,77.57
2022-12-17T10:46:50.210Z,77.16
2022-12-17T10:49:39.846Z,76.99
2022-12-17T10:52:50.123Z,76.28
2022-12-17T10:55:43.546Z,76.65
2022-12-17T10:58:34.716Z,75.70
2022-12-17T11:01:21.261Z,75.86
2022-12-17T11:04:10.315Z,75.95
2022-12-17T11:07:04.243Z,75.91
2022-12-17T11:10:09.617Z,76.70
2022-12-17T11:12:58.220Z,76.23
2022-12-17T11:15:51.202Z,75.92
2022-12-17T11:18:44.619Z,76.97
2022-12-17T11:21:38.204Z,76.67
2022-12-17T11:24:35.570Z,76.79
2022-12-17T11:27:28.020Z,76.87
2022-12-17T11:30:13.905Z,76.56
2022-12-17T11:33:31.148Z,76.05
2022-12-17T11:36:38.452Z,75.14
2022-12-17T11:39:40.164Z,75.41
2022-12-17T11:42:37.479Z,76.37
2022-12-17T11:45:42.670Z,75.49
2022-12-17T11:48:40.173Z,74.87
2022-12-17T11:51:36.569Z,75.66
2022-12-17T11:54:34.283Z,76.05
2022-12-17T11:57:37.100Z,76.18
2022-12-17T12:00:34.241Z,76.09
2022-12-17T12:03:49.292Z,76.32
2022-12-17T12:06:45.279Z,76.12
2022-12-17T12:09:45.265Z,76.05
2022-12-17T12:12:47.610Z,75.75
2022-12-17T12:15:45.955Z,75.38
2022-12-17T12:18:41.749Z,75.14
2022-12-17T12:21:53.544Z,75.03
2022-12-17T12:25:17.888Z,74.83
2022-12-17T12:28:17.576Z,75.66
2022-12-17T12:31:17.529Z,75.54
2022-12-17T12:34:12.577Z,75.62
2022-12-17T12:37:02.920Z,74.57
2022-12-17T12:39:58.403Z,75.32
2022-12-17T12:42:55.593Z,74.67
2022-12-17T12:46:00.208Z,75.56
2022-12-17T12:49:01.974Z,76.21
2022-12-17T12:51:54.165Z,76.57
2022-12-17T12:54:48.073Z,77.03
2022-12-17T12:57:52.261Z,76.98
2022-12-17T13:00:46.495Z,76.86
2022-12-17T13:03:49.380Z,77.09
2022-12-17T13:06:48.892Z,77.52
2022-12-17T13:09:38.570Z,77.21
2022-12-17T13:12:28.564Z,76.47
2022-12-17T13:15:17.594Z,76.81
2022-12-17T13:17:57.820Z,76.58
2022-12-17T13:20:30.894Z,76.55
2022-12-17T13:23:27.798Z,76.94
2022-12-17T13:26:22.028Z,77.68
2022-12-17T13:29:13.031Z,78.15
2022-12-17T13:32:03.591Z,78.15
2022-12-17T13:34:49.837Z,78.08
2022-12-17T13:37:34.027Z,78.09
2022-12-17T13:40:20.977Z,77.71
2022-12-17T13:42:50.258Z,77.97
2022-12-17T13:45:23.593Z,78.41
2022-12-17T13:47:57.319Z,78.47
2022-12-17T13:50:36.624Z,78.47
2022-12-17T13:53:12.696Z,78.52
2022-12-17T13:55:40.884Z,77.50
2022-12-17T13:58:24.501Z,77.59
2022-12-17T14:00:53.383Z,77.37
2022-12-17T14:03:37.409Z,76.98
2022-12-17T14:06:13.449Z,77.02
2022-12-17T14:08:42.803Z,77.91
2022-12-17T14:11:30.667Z,78.66
2022-12-17T14:13:59.121Z,78.83
2022-12-17T14:16:27.338Z,78.95
2022-12-17T14:18:59.527Z,78.92
2022-12-17T14:21:29.751Z,79.15
2022-12-17T14:23:58.952Z,78.99
2022-12-17T14:26:27.085Z,78.52
2022-12-17T14:28:57.072Z,78.09
2022-12-17T14:31:29.370Z,78.36
2022-12-17T14:34:11.241Z,78.64
2022-12-17T14:36:44.001Z,79.31
2022-12-17T14:39:21.999Z,79.07
2022-12-17T14:42:07.957Z,79.17
2022-12-17T14:44:52.108Z,79.08
2022-12-17T14:47:24.522Z,79.47
2022-12-17T14:50:04.403Z,79.70
2022-12-17T14:52:39.276Z,80.27
2022-12-17T14:55:36.639Z,80.70
2022-12-17T14:58:21.818Z,80.53
2022-12-17T15:00:55.516Z,80.80
2022-12-17T15:03:28.025Z,80.93
2022-12-17T15:06:02.737Z,80.66
2022-12-17T15:08:38.658Z,80.65
2022-12-17T15:11:07.038Z,80.49
2022-12-17T15:13:35.133Z,80.81
2022-12-17T15:16:03.237Z,81.38
2022-12-17T15:18:31.290Z,82.02
2022-12-17T15:21:02.485Z,82.15
2022-12-17T15:23:32.261Z,82.42
2022-12-17T15:26:00.357Z,82.27
2022-12-17T15:28:28.543Z,82.26
2022-12-17T15:30:56.652Z,82.34
2022-12-17T15:33:24.793Z,82.56
2022-12-17T15:35:52.950Z,82.73
2022-12-17T15:38:22.413Z,82.76
2022-12-17T15:40:53.442Z,82.94
2022-12-17T15:43:20.737Z,83.01
2022-12-17T15:45:51.376Z,82.82
2022-12-17T15:48:23.611Z,82.66
2022-12-17T15:50:51.817Z,82.83
2022-12-17T15:53:19.923Z,83.19
2022-12-17T15:55:49.341Z,83.29
2022-12-17T15:58:19.039Z,83.31
2022-12-17T16:00:47.230Z,83.58
2022-12-17T16:03:15.403Z,83.17
2022-12-17T16:05:43.546Z,82.95
2022-12-17T16:08:11.730Z,82.74
2022-12-17T16:10:40.111Z,82.76
2022-12-17T16:13:09.536Z,82.82
2022-12-17T16:15:37.700Z,83.12
2022-12-17T16:18:05.954Z,82.95
2022-12-17T16:20:34.095Z,83.17
2022-12-17T16:23:02.202Z,82.74
2022-12-17T16:25:30.322Z,82.90
2022-12-17T16:27:58.395Z,83.06
2022-12-17T16:30:27.848Z,82.83
2022-12-17T16:32:58.998Z,82.69
2022-12-17T16:35:28.350Z,82.76
2022-12-17T16:37:56.552Z,83.09
2022-12-17T16:40:24.606Z,83.56
2022-12-17T16:42:52.720Z,84.05
2022-12-17T16:45:20.783Z,83.85
2022-12-17T16:47:50.671Z,84.24
2022-12-17T16:50:18.840Z,84.56
2022-12-17T16:52:47.613Z,84.71
2022-12-17T16:55:15.804Z,84.76
2022-12-17T16:57:43.870Z,84.81
2022-12-17T17:00:13.333Z,84.86
2022-12-17T17:02:42.640Z,85.01
2022-12-17T17:05:12.354Z,85.14
2022-12-17T17:07:40.369Z,85.50
2022-12-17T17:10:09.304Z,85.66
2022-12-17T17:12:37.376Z,85.42
2022-12-17T17:15:06.604Z,84.99
2022-12-17T17:17:54.292Z,84.86
2022-12-17T17:20:24.045Z,84.90
2022-12-17T17:22:52.130Z,84.94
2022-12-17T17:25:21.000Z,85.16
2022-12-17T17:27:49.069Z,85.38
2022-12-17T17:30:17.254Z,85.56
2022-12-17T17:32:45.429Z,85.68
2022-12-17T17:35:13.493Z,85.76
2022-12-17T17:37:42.882Z,85.86
2022-12-17T17:40:13.776Z,85.61
2022-12-17T17:42:41.840Z,85.59
2022-12-17T17:45:10.734Z,85.67
2022-12-17T17:47:38.773Z,85.33
2022-12-17T17:50:07.666Z,85.50
2022-12-17T17:52:35.698Z,85.78
2022-12-17T17:55:06.044Z,86.09
2022-12-17T17:57:34.141Z,86.07
2022-12-17T18:00:02.665Z,86.28
2022-12-17T18:02:31.134Z,86.14
2022-12-17T18:05:02.591Z,86.23
2022-12-17T18:07:31.064Z,86.46
2022-12-17T18:09:59.783Z,86.90
2022-12-17T18:12:47.024Z,86.99
2022-12-17T18:15:16.723Z,87.18
2022-12-17T18:17:48.397Z,87.13
2022-12-17T18:20:17.136Z,87.13
2022-12-17T18:22:46.746Z,87.29
2022-12-17T18:25:16.000Z,87.33
2022-12-17T18:27:45.727Z,87.30
2022-12-17T18:30:16.153Z,87.47
2022-12-17T18:32:44.491Z,87.56
2022-12-17T18:35:12.673Z,87.47
2022-12-17T18:37:40.766Z,87.62
2022-12-17T18:40:10.225Z,87.44
2022-12-17T18:42:55.957Z,87.30
2022-12-17T18:45:25.390Z,87.19
2022-12-17T18:47:53.478Z,87.21
2022-12-17T18:50:21.545Z,87.26
2022-12-17T18:52:50.273Z,86.93
2022-12-17T18:55:18.509Z,86.70
2022-12-17T18:57:47.185Z,86.50
2022-12-17T19:00:15.944Z,86.45
2022-12-17T19:02:45.578Z,86.61
2022-12-17T19:05:13.873Z,86.38
2022-12-17T19:07:41.920Z,86.12
2022-12-17T19:10:11.098Z,86.00
2022-12-17T19:12:39.248Z,86.13
2022-12-17T19:15:09.109Z,86.30
2022-12-17T19:17:37.166Z,86.54
2022-12-17T19:20:08.162Z,86.37
2022-12-17T19:22:36.245Z,86.44
2022-12-17T19:25:04.781Z,86.78
2022-12-17T19:27:32.855Z,86.75
2022-12-17T19:30:00.954Z,87.06
2022-12-17T19:32:29.114Z,87.24
2022-12-17T19:34:57.142Z,87.33
2022-12-17T19:37:26.586Z,87.30
2022-12-17T19:39:54.632Z,87.44
2022-12-17T19:42:25.643Z,87.52
2022-12-17T19:44:55.000Z,87.67
2022-12-17T19:47:24.464Z,87.67
2022-12-17T19:49:52.707Z,87.58
2022-12-17T19:52:20.857Z,87.19
2022-12-17T19:54:50.469Z,86.84
2022-12-17T19:57:18.543Z,86.65
2022-12-17T19:59:46.552Z,86.56
2022-12-17T20:02:17.193Z,86.11
2022-12-17T20:04:45.444Z,85.93
2022-12-17T20:07:13.466Z,86.30
2022-12-17T20:09:44.003Z,86.40
2022-12-17T20:12:14.125Z,86.27
2022-12-17T20:14:42.300Z,86.21
2022-12-17T20:17:10.894Z,86.21
2022-12-17T20:19:39.027Z,86.38
2022-12-17T20:22:07.696Z,86.66
2022-12-17T20:24:37.181Z,86.89
2022-12-17T20:27:05.761Z,87.08
2022-12-17T20:29:35.741Z,86.88
2022-12-17T20:32:04.113Z,86.78
2022-12-17T20:34:32.401Z,86.69
2022-12-17T20:37:00.494Z,86.92
2022-12-17T20:39:28.671Z,86.73
2022-12-17T20:41:57.723Z,86.12
2022-12-17T20:44:25.992Z,85.98
2022-12-17T20:46:55.555Z,86.03
2022-12-17T20:49:23.573Z,86.22
2022-12-17T20:51:51.697Z,86.40
2022-12-17T20:54:19.923Z,86.23
2022-12-17T20:56:48.118Z,86.09
2022-12-17T20:59:19.996Z,86.25
2022-12-17T21:01:55.575Z,86.55
2022-12-17T21:04:25.837Z,86.61
2022-12-17T21:06:54.019Z,86.64
2022-12-17T21:09:25.242Z,86.90
2022-12-17T21:11:53.369Z,86.34
2022-12-17T21:14:21.407Z,86.34
2022-12-17T21:16:49.938Z,86.48
2022-12-17T21:19:20.363Z,86.41
2022-12-17T21:21:50.126Z,86.56
2022-12-17T21:24:18.520Z,86.83
2022-12-17T21:26:47.950Z,86.84
2022-12-17T21:29:17.382Z,87.12
2022-12-17T21:31:49.144Z,86.94
2022-12-17T21:34:22.352Z,86.85
2022-12-17T21:36:52.728Z,86.36
2022-12-17T21:39:21.855Z,86.25
2022-12-17T21:42:04.438Z,86.21
2022-12-17T21:44:32.597Z,86.37
2022-12-17T21:47:00.935Z,86.45
2022-12-17T21:49:29.050Z,86.64
2022-12-17T21:51:59.974Z,86.63
2022-12-17T21:54:28.578Z,86.49
2022-12-17T21:56:56.641Z,86.47
2022-12-17T21:59:24.946Z,86.47
2022-12-17T22:01:53.956Z,86.34
2022-12-17T22:04:22.230Z,86.12
2022-12-17T22:06:51.356Z,85.98
2022-12-17T22:09:39.591Z,86.25
2022-12-17T22:12:30.734Z,86.21
2022-12-17T22:14:58.830Z,86.37
2022-12-17T22:17:27.706Z,86.30
2022-12-17T22:19:55.803Z,86.04
2022-12-17T22:22:23.939Z,85.96
2022-12-17T22:24:53.381Z,85.68
2022-12-17T22:27:21.676Z,85.68
2022-12-17T22:30:10.476Z,85.86
2022-12-17T22:32:56.162Z,85.79
2022-12-17T22:36:33.560Z,85.52
2022-12-17T22:40:44.316Z,85.73
2022-12-17T22:44:33.455Z,85.72
2022-12-17T22:44:48.776Z,84.88
2022-12-17T22:46:43.535Z,83.96
2022-12-17T22:49:11.918Z,83.96
2022-12-17T22:51:42.725Z,83.73
2022-12-17T22:54:14.814Z,83.97
2022-12-17T22:57:27.776Z,84.22
2022-12-17T22:59:32.999Z,84.38
2022-12-17T23:02:01.173Z,84.45
2022-12-17T23:04:29.467Z,84.57
2022-12-17T23:06:57.631Z,84.60
2022-12-17T23:09:25.854Z,84.05
2022-12-17T23:11:55.395Z,84.09
2022-12-17T23:14:24.048Z,84.00
2022-12-17T23:16:52.111Z,84.25
2022-12-17T23:19:20.197Z,84.00
2022-12-17T23:21:48.252Z,83.98
2022-12-17T23:24:16.382Z,83.82
2022-12-17T23:26:44.477Z,83.77
2022-12-17T23:29:19.604Z,83.81
2022-12-17T23:31:48.409Z,83.75
2022-12-17T23:34:16.923Z,83.83
2022-12-17T23:36:45.086Z,83.80
2022-12-17T23:39:13.244Z,83.54
2022-12-17T23:41:41.411Z,82.90
2022-12-17T23:44:09.488Z,82.18
2022-12-17T23:46:39.017Z,82.00
2022-12-17T23:49:07.462Z,82.02
2022-12-17T23:51:35.730Z,82.35
2022-12-17T23:54:03.884Z,82.49
2022-12-17T23:56:32.101Z,82.39
2022-12-17T23:59:02.796Z,82.35
